Terminal Aerodrome Forecast
Issued by NWS

Home | Current Version | Previous Version | Text Only | Print | Product List | Glossary On
Versions: 1 2 3 4 5 6 7 8 9 10 11 12 13 14 15 16 17 18 19 20 21 22 23 24 25 26 27 28 29 30 31 32
000
FTUS44 KLIX 181434 AAA
TAFHUM
TAF AMD
KHUM 181434Z 1815/1912 VRB05KT 3SM -TSRA BR SCT020CB BKN050
     FM181515 VRB06KT P6SM BKN050
     FM181800 19010KT P6SM BKN050
     FM190600 19006KT P6SM BKN030
      TEMPO 1908/1912 2SM BR=

USA.gov is the U.S. government's official web portal to all federal, state and local government web resources and services.